Date,TemperatureHighF,TemperatureAvgF,TemperatureLowF,DewpointHighF,DewpointAvgF,DewpointLowF,HumidityHigh,HumidityAvg,HumidityLow,PressureMaxIn,PressureMinIn,WindSpeedMaxMPH,WindSpeedAvgMPH,GustSpeedMaxMPH,PrecipitationSumIn
2013-3-1,36.9,22.7,4.6,20.1,13.3,-0.4,87,68,47,31.10,30.86,16,4,20,0.00
2013-3-2,48.0,21.0,0.5,22.6,11.4,-2.9,92,71,29,31.01,30.70,7,1,12,0.00
2013-3-3,43.3,24.5,5.7,28.4,16.7,3.0,95,75,40,30.70,30.20,14,2,21,0.00
2013-3-4,37.8,27.0,3.4,28.8,21.6,-0.6,96,81,54,30.53,30.03,18,3,26,0.38
2013-3-5,32.2,7.2,-12.6,14.0,-0.1,-17.0,90,74,42,31.00,30.54,3,0,4,0.01
2013-3-6,43.3,15.7,-7.4,23.0,7.9,-11.2,89,74,36,31.01,30.59,5,1,6,0.00
2013-3-7,49.1,23.7,2.3,21.9,11.5,-0.8,93,66,18,30.62,30.39,10,1,12,0.00
2013-3-8,44.1,27.2,12.6,28.8,18.3,8.6,93,72,41,30.45,30.00,14,2,23,0.00
2013-3-9,28.2,24.7,18.1,26.1,20.0,14.4,93,83,67,30.33,29.88,12,3,17,0.01
2013-3-10,32.4,19.6,4.1,17.8,9.9,0.7,91,68,43,30.73,30.33,11,2,14,0.00
2013-3-11,38.5,19.1,-0.2,19.9,10.2,-3.5,91,71,38,30.79,30.59,12,2,16,0.00
2013-3-12,44.1,28.5,16.2,24.1,18.2,12.2,88,68,37,30.70,30.57,11,2,14,0.00
2013-3-13,48.7,28.5,10.2,24.1,16.9,7.3,93,66,31,30.81,30.69,8,1,10,0.00
2013-3-14,54.0,30.5,13.5,26.4,17.6,9.5,91,64,20,30.83,30.63,8,1,10,0.00
2013-3-15,56.7,33.5,15.3,27.9,20.2,12.2,91,63,25,30.67,30.30,10,2,15,0.00
2013-3-16,41.7,30.2,21.0,33.4,25.9,17.2,93,84,61,30.32,30.12,11,1,16,0.02
2013-3-17,41.7,31.7,23.2,31.5,19.4,8.2,95,64,36,30.19,29.96,21,6,31,0.00
2013-3-18,38.7,27.9,16.3,15.3,11.4,6.4,75,52,27,30.36,30.15,18,4,23,0.00
2013-3-19,39.9,28.8,15.1,19.0,11.3,0.3,79,52,19,30.60,30.35,13,3,17,0.00
2013-3-20,41.5,25.7,7.5,29.7,15.9,3.2,91,69,34,30.66,30.27,10,1,18,0.00
2013-3-21,41.4,29.9,15.8,31.6,22.0,8.6,96,74,40,30.27,29.88,24,3,30,0.01
2013-3-22,41.2,24.9,10.0,15.8,8.7,3.2,82,54,21,30.18,29.95,28,4,31,0.00
2013-3-23,21.6,14.9,3.6,11.7,6.1,-2.6,84,69,48,30.58,30.04,19,6,27,0.00
2013-3-24,25.5,11.2,-4.5,7.9,-0.4,-8.7,84,61,36,30.74,30.57,21,4,24,0.00
2013-3-25,33.3,14.3,-3.5,6.6,-1.6,-10.5,85,56,15,30.81,30.69,10,2,14,0.00
2013-3-26,46.2,27.2,9.0,23.2,11.6,1.8,77,55,25,30.74,30.35,23,2,26,0.00
2013-3-27,51.6,38.3,24.6,23.4,17.9,12.7,72,47,22,30.36,30.17,12,3,18,0.00
2013-3-28,52.5,35.8,18.9,27.0,19.6,13.3,85,57,21,30.39,30.28,10,1,13,0.00
2013-3-29,53.8,38.4,24.4,28.9,22.7,19.6,83,57,26,30.44,30.30,16,3,18,0.00
2013-3-30,52.0,37.9,22.6,31.1,25.4,19.6,90,64,34,30.43,30.27,15,3,21,0.00
2013-3-31,55.2,37.8,21.7,27.9,21.5,15.1,94,59,21,30.37,30.19,12,2,16,0.00